sensor_id;sensor_type;location;lat;lon;timestamp;P1;durP1;ratioP1;P2;durP2;ratioP2
57822;SDS011;43650;48.064;20.624;2022-09-20T00:00:38;1.80;;;0.90;;
57822;SDS011;43650;48.064;20.624;2022-09-20T00:01:39;5.18;;;1.00;;
57822;SDS011;43650;48.064;20.624;2022-09-20T00:02:40;1.37;;;0.80;;
57822;SDS011;43650;48.064;20.624;2022-09-20T00:03:41;1.27;;;0.93;;
57822;SDS011;43650;48.064;20.624;2022-09-20T00:04:43;2.05;;;0.80;;
57822;SDS011;43650;48.064;20.624;2022-09-20T00:05:44;2.50;;;1.07;;
57822;SDS011;43650;48.064;20.624;2022-09-20T00:07:46;1.25;;;1.02;;
57822;SDS011;43650;48.064;20.624;2022-09-20T00:08:46;1.20;;;1.00;;
57822;SDS011;43650;48.064;20.624;2022-09-20T00:09:47;2.47;;;0.98;;
57822;SDS011;43650;48.064;20.624;2022-09-20T00:10:48;0.93;;;0.70;;
57822;SDS011;43650;48.064;20.624;2022-09-20T00:11:48;1.03;;;0.70;;
57822;SDS011;43650;48.064;20.624;2022-09-20T00:12:50;1.08;;;0.88;;
57822;SDS011;43650;48.064;20.624;2022-09-20T00:13:51;0.88;;;0.60;;
57822;SDS011;43650;48.064;20.624;2022-09-20T00:14:53;2.50;;;1.12;;
57822;SDS011;43650;48.064;20.624;2022-09-20T00:15:53;1.53;;;1.10;;
57822;SDS011;43650;48.064;20.624;2022-09-20T00:16:54;1.50;;;1.00;;
57822;SDS011;43650;48.064;20.624;2022-09-20T00:17:55;1.77;;;1.07;;
57822;SDS011;43650;48.064;20.624;2022-09-20T00:18:56;1.15;;;0.90;;
57822;SDS011;43650;48.064;20.624;2022-09-20T00:19:58;2.30;;;0.98;;
57822;SDS011;43650;48.064;20.624;2022-09-20T00:20:59;1.50;;;1.07;;
57822;SDS011;43650;48.064;20.624;2022-09-20T00:21:59;1.50;;;0.87;;
57822;SDS011;43650;48.064;20.624;2022-09-20T00:22:59;1.70;;;1.00;;
57822;SDS011;43650;48.064;20.624;2022-09-20T00:24:00;1.90;;;0.87;;
57822;SDS011;43650;48.064;20.624;2022-09-20T00:25:01;4.93;;;1.17;;
57822;SDS011;43650;48.064;20.624;2022-09-20T00:26:02;2.77;;;0.90;;
57822;SDS011;43650;48.064;20.624;2022-09-20T00:27:03;3.05;;;0.98;;
57822;SDS011;43650;48.064;20.624;2022-09-20T00:28:04;3.53;;;0.93;;
57822;SDS011;43650;48.064;20.624;2022-09-20T00:29:05;2.97;;;1.00;;
57822;SDS011;43650;48.064;20.624;2022-09-20T00:30:05;2.20;;;0.90;;
57822;SDS011;43650;48.064;20.624;2022-09-20T00:31:08;1.00;;;0.70;;
57822;SDS011;43650;48.064;20.624;2022-09-20T00:32:08;1.90;;;0.50;;
57822;SDS011;43650;48.064;20.624;2022-09-20T00:33:09;1.27;;;0.80;;
57822;SDS011;43650;48.064;20.624;2022-09-20T00:34:09;1.43;;;0.83;;
57822;SDS011;43650;48.064;20.624;2022-09-20T00:35:28;1.00;;;0.75;;
57822;SDS011;43650;48.064;20.624;2022-09-20T00:36:30;1.65;;;0.80;;
57822;SDS011;43650;48.064;20.624;2022-09-20T00:37:30;3.23;;;1.10;;
57822;SDS011;43650;48.064;20.624;2022-09-20T00:38:30;1.10;;;0.70;;
57822;SDS011;43650;48.064;20.624;2022-09-20T00:39:31;2.63;;;1.00;;
57822;SDS011;43650;48.064;20.624;2022-09-20T00:40:31;1.03;;;0.60;;
57822;SDS011;43650;48.064;20.624;2022-09-20T00:41:32;1.63;;;0.70;;
57822;SDS011;43650;48.064;20.624;2022-09-20T00:42:32;1.03;;;0.73;;
57822;SDS011;43650;48.064;20.624;2022-09-20T00:43:34;0.87;;;0.70;;
57822;SDS011;43650;48.064;20.624;2022-09-20T00:46:33;1.30;;;0.70;;
57822;SDS011;43650;48.064;20.624;2022-09-20T00:47:47;1.80;;;0.60;;
57822;SDS011;43650;48.064;20.624;2022-09-20T00:48:52;1.25;;;0.90;;
57822;SDS011;43650;48.064;20.624;2022-09-20T00:51:20;1.08;;;0.70;;
57822;SDS011;43650;48.064;20.624;2022-09-20T00:52:24;1.45;;;0.80;;
57822;SDS011;43650;48.064;20.624;2022-09-20T00:53:30;2.87;;;1.08;;
57822;SDS011;43650;48.064;20.624;2022-09-20T00:54:36;0.90;;;0.75;;
57822;SDS011;43650;48.064;20.624;2022-09-20T00:55:37;1.07;;;0.63;;
57822;SDS011;43650;48.064;20.624;2022-09-20T00:56:41;0.62;;;0.62;;
57822;SDS011;43650;48.064;20.624;2022-09-20T00:57:43;2.15;;;1.02;;
57822;SDS011;43650;48.064;20.624;2022-09-20T00:58:45;1.48;;;0.95;;
57822;SDS011;43650;48.064;20.624;2022-09-20T00:59:51;1.33;;;0.90;;
57822;SDS011;43650;48.064;20.624;2022-09-20T01:02:14;1.73;;;0.90;;
57822;SDS011;43650;48.064;20.624;2022-09-20T01:03:16;1.67;;;0.70;;
57822;SDS011;43650;48.064;20.624;2022-09-20T01:04:22;1.37;;;0.80;;
57822;SDS011;43650;48.064;20.624;2022-09-20T01:05:24;1.02;;;0.65;;
57822;SDS011;43650;48.064;20.624;2022-09-20T01:06:25;1.70;;;0.82;;
57822;SDS011;43650;48.064;20.624;2022-09-20T01:07:26;1.70;;;0.90;;
57822;SDS011;43650;48.064;20.624;2022-09-20T01:08:27;6.07;;;0.62;;
57822;SDS011;43650;48.064;20.624;2022-09-20T01:09:28;1.30;;;1.00;;
57822;SDS011;43650;48.064;20.624;2022-09-20T01:10:28;1.57;;;1.23;;
57822;SDS011;43650;48.064;20.624;2022-09-20T01:11:29;2.65;;;1.05;;
57822;SDS011;43650;48.064;20.624;2022-09-20T01:12:31;0.90;;;0.70;;
57822;SDS011;43650;48.064;20.624;2022-09-20T01:13:34;1.15;;;0.73;;
57822;SDS011;43650;48.064;20.624;2022-09-20T01:14:34;0.87;;;0.63;;
57822;SDS011;43650;48.064;20.624;2022-09-20T01:15:35;1.03;;;0.70;;
57822;SDS011;43650;48.064;20.624;2022-09-20T01:16:36;1.42;;;1.15;;
57822;SDS011;43650;48.064;20.624;2022-09-20T01:17:38;1.00;;;0.80;;
57822;SDS011;43650;48.064;20.624;2022-09-20T01:18:41;2.35;;;0.95;;
57822;SDS011;43650;48.064;20.624;2022-09-20T01:19:53;1.30;;;0.82;;
57822;SDS011;43650;48.064;20.624;2022-09-20T01:21:12;0.68;;;0.50;;
57822;SDS011;43650;48.064;20.624;2022-09-20T01:22:21;0.73;;;0.55;;
57822;SDS011;43650;48.064;20.624;2022-09-20T01:24:42;1.15;;;0.80;;
57822;SDS011;43650;48.064;20.624;2022-09-20T01:27:23;1.15;;;0.80;;
57822;SDS011;43650;48.064;20.624;2022-09-20T01:28:45;1.00;;;0.60;;
57822;SDS011;43650;48.064;20.624;2022-09-20T01:30:04;0.93;;;0.60;;
57822;SDS011;43650;48.064;20.624;2022-09-20T01:31:14;1.40;;;0.77;;
57822;SDS011;43650;48.064;20.624;2022-09-20T01:32:26;0.60;;;0.60;;
57822;SDS011;43650;48.064;20.624;2022-09-20T01:33:54;0.70;;;0.70;;
57822;SDS011;43650;48.064;20.624;2022-09-20T01:34:58;2.00;;;1.30;;
57822;SDS011;43650;48.064;20.624;2022-09-20T01:36:00;3.08;;;1.90;;
57822;SDS011;43650;48.064;20.624;2022-09-20T01:37:08;2.30;;;1.48;;
57822;SDS011;43650;48.064;20.624;2022-09-20T01:38:32;2.30;;;1.33;;
57822;SDS011;43650;48.064;20.624;2022-09-20T01:41:11;1.15;;;0.82;;
57822;SDS011;43650;48.064;20.624;2022-09-20T01:42:57;1.27;;;0.90;;
57822;SDS011;43650;48.064;20.624;2022-09-20T01:46:31;1.73;;;1.00;;
57822;SDS011;43650;48.064;20.624;2022-09-20T01:56:24;1.85;;;0.60;;
57822;SDS011;43650;48.064;20.624;2022-09-20T02:00:20;1.05;;;0.80;;
57822;SDS011;43650;48.064;20.624;2022-09-20T02:03:02;1.45;;;0.80;;
57822;SDS011;43650;48.064;20.624;2022-09-20T02:12:07;1.83;;;0.70;;
57822;SDS011;43650;48.064;20.624;2022-09-20T02:14:34;3.00;;;0.50;;
57822;SDS011;43650;48.064;20.624;2022-09-20T02:17:02;2.87;;;0.80;;
57822;SDS011;43650;48.064;20.624;2022-09-20T02:23:20;1.15;;;0.73;;
57822;SDS011;43650;48.064;20.624;2022-09-20T02:26:16;4.75;;;2.05;;
57822;SDS011;43650;48.064;20.624;2022-09-20T02:35:32;0.77;;;0.70;;
57822;SDS011;43650;48.064;20.624;2022-09-20T02:36:44;1.02;;;0.55;;
57822;SDS011;43650;48.064;20.624;2022-09-20T02:39:59;0.65;;;0.50;;
57822;SDS011;43650;48.064;20.624;2022-09-20T02:44:16;1.55;;;0.65;;
57822;SDS011;43650;48.064;20.624;2022-09-20T02:45:34;0.75;;;0.50;;
57822;SDS011;43650;48.064;20.624;2022-09-20T02:46:52;1.65;;;1.30;;
57822;SDS011;43650;48.064;20.624;2022-09-20T02:51:41;1.05;;;0.65;;
57822;SDS011;43650;48.064;20.624;2022-09-20T02:53:12;1.65;;;0.70;;
57822;SDS011;43650;48.064;20.624;2022-09-20T02:54:36;1.08;;;0.50;;
57822;SDS011;43650;48.064;20.624;2022-09-20T02:56:17;1.67;;;0.68;;
57822;SDS011;43650;48.064;20.624;2022-09-20T02:59:52;1.15;;;0.80;;
57822;SDS011;43650;48.064;20.624;2022-09-20T03:06:07;0.95;;;0.70;;
57822;SDS011;43650;48.064;20.624;2022-09-20T03:07:20;1.52;;;0.80;;
57822;SDS011;43650;48.064;20.624;2022-09-20T03:08:32;1.37;;;0.62;;
57822;SDS011;43650;48.064;20.624;2022-09-20T03:09:43;1.27;;;0.80;;
57822;SDS011;43650;48.064;20.624;2022-09-20T03:15:17;2.08;;;0.70;;
57822;SDS011;43650;48.064;20.624;2022-09-20T03:20:29;1.52;;;0.82;;
57822;SDS011;43650;48.064;20.624;2022-09-20T03:24:43;0.80;;;0.55;;
57822;SDS011;43650;48.064;20.624;2022-09-20T03:26:19;1.20;;;0.75;;
57822;SDS011;43650;48.064;20.624;2022-09-20T03:35:29;1.93;;;0.70;;
57822;SDS011;43650;48.064;20.624;2022-09-20T03:38:02;1.10;;;0.60;;
57822;SDS011;43650;48.064;20.624;2022-09-20T03:40:46;3.10;;;1.17;;
57822;SDS011;43650;48.064;20.624;2022-09-20T03:42:06;1.75;;;0.95;;
57822;SDS011;43650;48.064;20.624;2022-09-20T03:56:09;1.67;;;0.85;;
57822;SDS011;43650;48.064;20.624;2022-09-20T03:57:05;3.90;;;1.40;;
57822;SDS011;43650;48.064;20.624;2022-09-20T04:04:47;1.90;;;1.15;;
57822;SDS011;43650;48.064;20.624;2022-09-20T04:07:22;2.90;;;1.85;;
57822;SDS011;43650;48.064;20.624;2022-09-20T04:10:53;13.48;;;2.80;;
57822;SDS011;43650;48.064;20.624;2022-09-20T04:13:39;3.92;;;1.98;;
57822;SDS011;43650;48.064;20.624;2022-09-20T04:14:49;5.78;;;2.15;;
57822;SDS011;43650;48.064;20.624;2022-09-20T04:19:42;4.05;;;1.10;;
57822;SDS011;43650;48.064;20.624;2022-09-20T04:22:46;1.52;;;0.70;;
57822;SDS011;43650;48.064;20.624;2022-09-20T04:26:13;3.22;;;0.90;;
57822;SDS011;43650;48.064;20.624;2022-09-20T04:28:42;4.72;;;1.65;;
57822;SDS011;43650;48.064;20.624;2022-09-20T04:29:48;2.67;;;1.55;;
57822;SDS011;43650;48.064;20.624;2022-09-20T04:30:55;5.50;;;2.22;;
57822;SDS011;43650;48.064;20.624;2022-09-20T04:34:43;5.15;;;3.08;;
57822;SDS011;43650;48.064;20.624;2022-09-20T04:36:10;4.72;;;2.90;;
57822;SDS011;43650;48.064;20.624;2022-09-20T04:37:35;5.03;;;2.60;;
57822;SDS011;43650;48.064;20.624;2022-09-20T04:38:37;4.93;;;2.10;;
57822;SDS011;43650;48.064;20.624;2022-09-20T04:39:46;3.78;;;2.20;;
57822;SDS011;43650;48.064;20.624;2022-09-20T04:46:15;9.30;;;5.47;;
57822;SDS011;43650;48.064;20.624;2022-09-20T04:56:59;10.07;;;5.97;;
57822;SDS011;43650;48.064;20.624;2022-09-20T04:58:31;7.05;;;4.68;;
57822;SDS011;43650;48.064;20.624;2022-09-20T05:07:47;12.98;;;7.97;;
57822;SDS011;43650;48.064;20.624;2022-09-20T05:10:50;8.40;;;5.60;;
57822;SDS011;43650;48.064;20.624;2022-09-20T05:14:16;6.20;;;3.30;;
57822;SDS011;43650;48.064;20.624;2022-09-20T05:19:10;5.28;;;3.58;;
57822;SDS011;43650;48.064;20.624;2022-09-20T05:27:58;7.32;;;4.15;;
57822;SDS011;43650;48.064;20.624;2022-09-20T05:29:17;8.90;;;4.40;;
57822;SDS011;43650;48.064;20.624;2022-09-20T05:30:38;5.05;;;3.03;;
57822;SDS011;43650;48.064;20.624;2022-09-20T05:31:50;4.65;;;3.08;;
57822;SDS011;43650;48.064;20.624;2022-09-20T05:32:58;7.25;;;4.03;;
57822;SDS011;43650;48.064;20.624;2022-09-20T05:35:05;7.97;;;3.30;;
57822;SDS011;43650;48.064;20.624;2022-09-20T05:41:05;6.32;;;4.12;;
57822;SDS011;43650;48.064;20.624;2022-09-20T05:42:19;6.45;;;3.78;;
57822;SDS011;43650;48.064;20.624;2022-09-20T05:43:31;5.30;;;3.67;;
57822;SDS011;43650;48.064;20.624;2022-09-20T05:46:09;5.50;;;3.17;;
57822;SDS011;43650;48.064;20.624;2022-09-20T05:47:16;5.62;;;2.90;;
57822;SDS011;43650;48.064;20.624;2022-09-20T05:50:17;4.10;;;2.58;;
57822;SDS011;43650;48.064;20.624;2022-09-20T05:58:22;1.37;;;0.80;;
57822;SDS011;43650;48.064;20.624;2022-09-20T06:00:17;0.90;;;0.50;;
57822;SDS011;43650;48.064;20.624;2022-09-20T06:15:47;20.05;;;6.57;;
57822;SDS011;43650;48.064;20.624;2022-09-20T06:18:21;5.32;;;1.77;;
57822;SDS011;43650;48.064;20.624;2022-09-20T06:19:38;2.75;;;1.52;;
57822;SDS011;43650;48.064;20.624;2022-09-20T06:23:31;6.07;;;2.45;;
57822;SDS011;43650;48.064;20.624;2022-09-20T06:24:42;5.72;;;2.80;;
57822;SDS011;43650;48.064;20.624;2022-09-20T06:25:48;3.42;;;1.50;;
57822;SDS011;43650;48.064;20.624;2022-09-20T06:26:54;1.45;;;0.98;;
57822;SDS011;43650;48.064;20.624;2022-09-20T06:29:12;3.10;;;1.00;;
57822;SDS011;43650;48.064;20.624;2022-09-20T06:30:24;1.73;;;1.05;;
57822;SDS011;43650;48.064;20.624;2022-09-20T06:31:29;1.62;;;1.10;;
57822;SDS011;43650;48.064;20.624;2022-09-20T06:32:30;1.17;;;0.90;;
57822;SDS011;43650;48.064;20.624;2022-09-20T06:33:31;1.23;;;0.70;;
57822;SDS011;43650;48.064;20.624;2022-09-20T06:34:31;1.07;;;0.80;;
57822;SDS011;43650;48.064;20.624;2022-09-20T06:35:34;12.33;;;0.80;;
57822;SDS011;43650;48.064;20.624;2022-09-20T06:36:36;0.75;;;0.75;;
57822;SDS011;43650;48.064;20.624;2022-09-20T06:38:04;1.02;;;0.50;;
57822;SDS011;43650;48.064;20.624;2022-09-20T06:41:08;5.20;;;0.77;;
57822;SDS011;43650;48.064;20.624;2022-09-20T06:42:28;0.43;;;0.30;;
57822;SDS011;43650;48.064;20.624;2022-09-20T06:43:28;0.70;;;0.50;;
57822;SDS011;43650;48.064;20.624;2022-09-20T06:44:30;5.97;;;0.73;;
57822;SDS011;43650;48.064;20.624;2022-09-20T06:45:31;0.40;;;0.40;;
57822;SDS011;43650;48.064;20.624;2022-09-20T06:46:32;2.37;;;0.70;;
57822;SDS011;43650;48.064;20.624;2022-09-20T06:47:34;0.32;;;0.30;;
57822;SDS011;43650;48.064;20.624;2022-09-20T06:48:36;1.23;;;0.40;;
57822;SDS011;43650;48.064;20.624;2022-09-20T06:49:39;0.62;;;0.35;;
57822;SDS011;43650;48.064;20.624;2022-09-20T06:50:43;0.15;;;0.15;;
57822;SDS011;43650;48.064;20.624;2022-09-20T06:51:44;0.52;;;0.47;;
57822;SDS011;43650;48.064;20.624;2022-09-20T06:52:44;0.33;;;0.33;;
57822;SDS011;43650;48.064;20.624;2022-09-20T06:53:45;0.85;;;0.40;;
57822;SDS011;43650;48.064;20.624;2022-09-20T06:54:46;0.87;;;0.87;;
57822;SDS011;43650;48.064;20.624;2022-09-20T06:55:49;0.35;;;0.30;;
57822;SDS011;43650;48.064;20.624;2022-09-20T06:56:50;1.70;;;0.35;;
57822;SDS011;43650;48.064;20.624;2022-09-20T06:57:50;0.30;;;0.20;;
57822;SDS011;43650;48.064;20.624;2022-09-20T06:58:51;0.40;;;0.40;;
57822;SDS011;43650;48.064;20.624;2022-09-20T06:59:52;0.35;;;0.20;;
57822;SDS011;43650;48.064;20.624;2022-09-20T07:00:52;0.30;;;0.30;;
57822;SDS011;43650;48.064;20.624;2022-09-20T07:01:53;2.03;;;0.37;;
57822;SDS011;43650;48.064;20.624;2022-09-20T07:02:54;0.30;;;0.20;;
57822;SDS011;43650;48.064;20.624;2022-09-20T07:03:55;0.62;;;0.35;;
57822;SDS011;43650;48.064;20.624;2022-09-20T07:05:58;1.05;;;0.70;;
57822;SDS011;43650;48.064;20.624;2022-09-20T07:07:03;2.67;;;0.40;;
57822;SDS011;43650;48.064;20.624;2022-09-20T07:08:04;0.65;;;0.57;;
57822;SDS011;43650;48.064;20.624;2022-09-20T07:09:05;0.70;;;0.40;;
57822;SDS011;43650;48.064;20.624;2022-09-20T07:10:05;0.67;;;0.40;;
57822;SDS011;43650;48.064;20.624;2022-09-20T07:11:06;1.58;;;0.82;;
57822;SDS011;43650;48.064;20.624;2022-09-20T07:12:09;1.12;;;0.62;;
57822;SDS011;43650;48.064;20.624;2022-09-20T07:13:11;1.83;;;0.80;;
57822;SDS011;43650;48.064;20.624;2022-09-20T07:14:14;1.17;;;0.70;;
57822;SDS011;43650;48.064;20.624;2022-09-20T07:15:15;0.93;;;0.60;;
57822;SDS011;43650;48.064;20.624;2022-09-20T07:16:15;1.62;;;1.37;;
57822;SDS011;43650;48.064;20.624;2022-09-20T07:17:16;3.57;;;2.00;;
57822;SDS011;43650;48.064;20.624;2022-09-20T07:18:16;2.60;;;1.60;;
57822;SDS011;43650;48.064;20.624;2022-09-20T07:19:17;2.77;;;1.73;;
57822;SDS011;43650;48.064;20.624;2022-09-20T07:20:17;2.03;;;1.48;;
57822;SDS011;43650;48.064;20.624;2022-09-20T07:21:19;2.67;;;0.88;;
57822;SDS011;43650;48.064;20.624;2022-09-20T07:22:20;4.68;;;2.53;;
57822;SDS011;43650;48.064;20.624;2022-09-20T07:23:21;2.47;;;1.50;;
57822;SDS011;43650;48.064;20.624;2022-09-20T07:24:21;1.80;;;1.17;;
57822;SDS011;43650;48.064;20.624;2022-09-20T07:25:21;1.00;;;0.90;;
57822;SDS011;43650;48.064;20.624;2022-09-20T07:26:23;1.62;;;1.23;;
57822;SDS011;43650;48.064;20.624;2022-09-20T07:27:25;2.22;;;0.57;;
57822;SDS011;43650;48.064;20.624;2022-09-20T07:28:26;0.40;;;0.40;;
57822;SDS011;43650;48.064;20.624;2022-09-20T07:29:27;1.67;;;0.20;;
57822;SDS011;43650;48.064;20.624;2022-09-20T07:30:28;0.50;;;0.35;;
57822;SDS011;43650;48.064;20.624;2022-09-20T07:31:28;0.77;;;0.30;;
57822;SDS011;43650;48.064;20.624;2022-09-20T07:32:29;2.97;;;0.53;;
57822;SDS011;43650;48.064;20.624;2022-09-20T07:33:29;0.40;;;0.30;;
57822;SDS011;43650;48.064;20.624;2022-09-20T07:34:30;0.53;;;0.40;;
57822;SDS011;43650;48.064;20.624;2022-09-20T07:35:31;0.80;;;0.50;;
57822;SDS011;43650;48.064;20.624;2022-09-20T07:36:31;0.30;;;0.27;;
57822;SDS011;43650;48.064;20.624;2022-09-20T07:37:31;0.70;;;0.53;;
57822;SDS011;43650;48.064;20.624;2022-09-20T07:38:32;0.83;;;0.30;;
57822;SDS011;43650;48.064;20.624;2022-09-20T07:39:32;2.17;;;0.90;;
57822;SDS011;43650;48.064;20.624;2022-09-20T07:40:33;6.87;;;1.00;;
57822;SDS011;43650;48.064;20.624;2022-09-20T07:41:33;8.00;;;0.67;;
57822;SDS011;43650;48.064;20.624;2022-09-20T07:42:33;0.80;;;0.63;;
57822;SDS011;43650;48.064;20.624;2022-09-20T07:43:34;0.90;;;0.53;;
57822;SDS011;43650;48.064;20.624;2022-09-20T07:44:34;0.40;;;0.40;;
57822;SDS011;43650;48.064;20.624;2022-09-20T07:45:35;0.23;;;0.23;;
57822;SDS011;43650;48.064;20.624;2022-09-20T07:46:38;0.55;;;0.32;;
57822;SDS011;43650;48.064;20.624;2022-09-20T07:47:38;0.80;;;0.57;;
57822;SDS011;43650;48.064;20.624;2022-09-20T07:48:41;0.47;;;0.47;;
57822;SDS011;43650;48.064;20.624;2022-09-20T07:49:41;0.40;;;0.30;;
57822;SDS011;43650;48.064;20.624;2022-09-20T07:50:48;0.40;;;0.23;;
57822;SDS011;43650;48.064;20.624;2022-09-20T07:51:50;3.42;;;0.20;;
57822;SDS011;43650;48.064;20.624;2022-09-20T07:52:51;1.77;;;0.50;;
57822;SDS011;43650;48.064;20.624;2022-09-20T07:53:55;0.57;;;0.37;;
57822;SDS011;43650;48.064;20.624;2022-09-20T07:54:55;0.53;;;0.30;;
57822;SDS011;43650;48.064;20.624;2022-09-20T07:56:00;1.20;;;0.40;;
57822;SDS011;43650;48.064;20.624;2022-09-20T07:57:00;2.58;;;0.50;;
57822;SDS011;43650;48.064;20.624;2022-09-20T07:58:01;4.18;;;1.12;;
57822;SDS011;43650;48.064;20.624;2022-09-20T07:59:02;0.73;;;0.50;;
57822;SDS011;43650;48.064;20.624;2022-09-20T08:00:06;0.30;;;0.20;;
57822;SDS011;43650;48.064;20.624;2022-09-20T08:01:09;1.33;;;0.70;;
57822;SDS011;43650;48.064;20.624;2022-09-20T08:02:14;3.75;;;1.60;;
57822;SDS011;43650;48.064;20.624;2022-09-20T08:03:15;2.83;;;1.30;;
57822;SDS011;43650;48.064;20.624;2022-09-20T08:04:15;3.90;;;1.43;;
57822;SDS011;43650;48.064;20.624;2022-09-20T08:05:16;6.77;;;2.47;;
57822;SDS011;43650;48.064;20.624;2022-09-20T08:06:17;5.73;;;2.13;;
57822;SDS011;43650;48.064;20.624;2022-09-20T08:07:20;2.87;;;1.23;;
57822;SDS011;43650;48.064;20.624;2022-09-20T08:08:20;1.40;;;0.90;;
57822;SDS011;43650;48.064;20.624;2022-09-20T08:09:21;2.37;;;1.10;;
57822;SDS011;43650;48.064;20.624;2022-09-20T08:10:21;1.90;;;0.80;;
57822;SDS011;43650;48.064;20.624;2022-09-20T08:11:22;6.43;;;1.07;;
57822;SDS011;43650;48.064;20.624;2022-09-20T08:12:24;4.07;;;1.42;;
57822;SDS011;43650;48.064;20.624;2022-09-20T08:13:25;2.78;;;1.35;;
57822;SDS011;43650;48.064;20.624;2022-09-20T08:14:26;2.47;;;1.05;;
57822;SDS011;43650;48.064;20.624;2022-09-20T08:15:26;3.17;;;1.13;;
57822;SDS011;43650;48.064;20.624;2022-09-20T08:16:28;5.78;;;1.30;;
57822;SDS011;43650;48.064;20.624;2022-09-20T08:17:29;3.00;;;1.27;;
57822;SDS011;43650;48.064;20.624;2022-09-20T08:18:29;1.83;;;1.07;;
57822;SDS011;43650;48.064;20.624;2022-09-20T08:19:30;9.17;;;2.37;;
57822;SDS011;43650;48.064;20.624;2022-09-20T08:20:30;11.27;;;2.87;;
57822;SDS011;43650;48.064;20.624;2022-09-20T08:21:32;3.70;;;2.00;;
57822;SDS011;43650;48.064;20.624;2022-09-20T08:22:33;2.50;;;1.45;;
57822;SDS011;43650;48.064;20.624;2022-09-20T08:23:34;3.47;;;1.40;;
57822;SDS011;43650;48.064;20.624;2022-09-20T08:24:35;3.42;;;1.08;;
57822;SDS011;43650;48.064;20.624;2022-09-20T08:25:35;3.57;;;1.13;;
57822;SDS011;43650;48.064;20.624;2022-09-20T08:27:37;1.58;;;0.98;;
57822;SDS011;43650;48.064;20.624;2022-09-20T08:28:38;1.90;;;1.00;;
57822;SDS011;43650;48.064;20.624;2022-09-20T08:29:40;9.30;;;1.75;;
57822;SDS011;43650;48.064;20.624;2022-09-20T08:30:40;1.73;;;0.90;;
57822;SDS011;43650;48.064;20.624;2022-09-20T08:31:41;3.05;;;1.10;;
57822;SDS011;43650;48.064;20.624;2022-09-20T08:32:42;1.65;;;1.05;;
57822;SDS011;43650;48.064;20.624;2022-09-20T08:33:43;4.37;;;0.90;;
57822;SDS011;43650;48.064;20.624;2022-09-20T08:34:43;2.47;;;1.33;;
57822;SDS011;43650;48.064;20.624;2022-09-20T08:35:47;2.80;;;1.43;;
57822;SDS011;43650;48.064;20.624;2022-09-20T08:36:48;1.52;;;0.95;;
57822;SDS011;43650;48.064;20.624;2022-09-20T08:37:53;1.73;;;0.75;;
57822;SDS011;43650;48.064;20.624;2022-09-20T08:38:54;4.82;;;1.98;;
57822;SDS011;43650;48.064;20.624;2022-09-20T08:39:55;2.97;;;1.40;;
57822;SDS011;43650;48.064;20.624;2022-09-20T08:40:59;2.80;;;1.40;;
57822;SDS011;43650;48.064;20.624;2022-09-20T08:42:11;1.65;;;0.85;;
57822;SDS011;43650;48.064;20.624;2022-09-20T08:43:43;3.17;;;1.37;;
57822;SDS011;43650;48.064;20.624;2022-09-20T08:44:50;2.75;;;1.60;;
57822;SDS011;43650;48.064;20.624;2022-09-20T08:45:56;1.30;;;0.90;;
57822;SDS011;43650;48.064;20.624;2022-09-20T08:47:02;6.12;;;1.12;;
57822;SDS011;43650;48.064;20.624;2022-09-20T08:48:42;3.25;;;1.33;;
57822;SDS011;43650;48.064;20.624;2022-09-20T08:49:43;2.62;;;1.40;;
57822;SDS011;43650;48.064;20.624;2022-09-20T08:50:43;2.00;;;1.17;;
57822;SDS011;43650;48.064;20.624;2022-09-20T08:51:44;1.90;;;1.10;;
57822;SDS011;43650;48.064;20.624;2022-09-20T08:52:48;1.60;;;0.98;;
57822;SDS011;43650;48.064;20.624;2022-09-20T08:53:53;1.65;;;0.95;;
57822;SDS011;43650;48.064;20.624;2022-09-20T08:54:54;2.15;;;1.20;;
57822;SDS011;43650;48.064;20.624;2022-09-20T08:55:58;1.33;;;1.00;;
57822;SDS011;43650;48.064;20.624;2022-09-20T08:57:03;2.05;;;1.37;;
57822;SDS011;43650;48.064;20.624;2022-09-20T08:58:11;5.80;;;1.02;;
57822;SDS011;43650;48.064;20.624;2022-09-20T09:00:15;1.77;;;1.10;;
57822;SDS011;43650;48.064;20.624;2022-09-20T09:01:21;1.27;;;1.00;;
57822;SDS011;43650;48.064;20.624;2022-09-20T09:02:23;2.50;;;0.98;;
57822;SDS011;43650;48.064;20.624;2022-09-20T09:03:24;1.30;;;0.82;;
57822;SDS011;43650;48.064;20.624;2022-09-20T09:04:30;1.50;;;1.10;;
57822;SDS011;43650;48.064;20.624;2022-09-20T09:05:39;2.50;;;0.80;;
57822;SDS011;43650;48.064;20.624;2022-09-20T09:06:44;0.70;;;0.50;;
57822;SDS011;43650;48.064;20.624;2022-09-20T09:07:45;1.30;;;0.82;;
57822;SDS011;43650;48.064;20.624;2022-09-20T09:08:46;1.20;;;0.82;;
57822;SDS011;43650;48.064;20.624;2022-09-20T09:09:51;1.73;;;0.90;;
57822;SDS011;43650;48.064;20.624;2022-09-20T09:10:57;1.00;;;0.80;;
57822;SDS011;43650;48.064;20.624;2022-09-20T09:11:59;1.15;;;0.60;;
57822;SDS011;43650;48.064;20.624;2022-09-20T09:13:00;1.60;;;1.10;;
57822;SDS011;43650;48.064;20.624;2022-09-20T09:14:10;2.53;;;1.33;;
57822;SDS011;43650;48.064;20.624;2022-09-20T09:15:49;1.00;;;0.62;;
57822;SDS011;43650;48.064;20.624;2022-09-20T09:16:52;0.82;;;0.60;;
57822;SDS011;43650;48.064;20.624;2022-09-20T09:17:53;3.28;;;0.57;;
57822;SDS011;43650;48.064;20.624;2022-09-20T09:19:57;5.82;;;1.27;;
57822;SDS011;43650;48.064;20.624;2022-09-20T09:21:22;2.22;;;0.40;;
57822;SDS011;43650;48.064;20.624;2022-09-20T09:22:27;2.78;;;0.70;;
57822;SDS011;43650;48.064;20.624;2022-09-20T09:23:55;1.10;;;0.60;;
57822;SDS011;43650;48.064;20.624;2022-09-20T09:25:21;0.98;;;0.80;;
57822;SDS011;43650;48.064;20.624;2022-09-20T09:26:22;0.80;;;0.52;;
57822;SDS011;43650;48.064;20.624;2022-09-20T09:28:24;1.48;;;0.70;;
57822;SDS011;43650;48.064;20.624;2022-09-20T09:29:28;3.50;;;0.70;;
57822;SDS011;43650;48.064;20.624;2022-09-20T09:31:43;0.80;;;0.65;;
57822;SDS011;43650;48.064;20.624;2022-09-20T09:32:48;4.00;;;0.70;;
57822;SDS011;43650;48.064;20.624;2022-09-20T09:33:49;0.97;;;0.67;;
57822;SDS011;43650;48.064;20.624;2022-09-20T09:34:49;1.70;;;0.90;;
57822;SDS011;43650;48.064;20.624;2022-09-20T09:36:04;0.73;;;0.73;;
57822;SDS011;43650;48.064;20.624;2022-09-20T09:37:25;1.48;;;0.68;;
57822;SDS011;43650;48.064;20.624;2022-09-20T09:38:29;0.82;;;0.62;;
57822;SDS011;43650;48.064;20.624;2022-09-20T09:39:33;0.80;;;0.57;;
57822;SDS011;43650;48.064;20.624;2022-09-20T09:40:37;1.12;;;0.77;;
57822;SDS011;43650;48.064;20.624;2022-09-20T09:41:49;0.68;;;0.55;;
57822;SDS011;43650;48.064;20.624;2022-09-20T09:42:50;0.60;;;0.60;;
57822;SDS011;43650;48.064;20.624;2022-09-20T09:43:56;5.70;;;0.90;;
57822;SDS011;43650;48.064;20.624;2022-09-20T09:45:19;1.08;;;0.68;;
57822;SDS011;43650;48.064;20.624;2022-09-20T09:46:26;0.50;;;0.40;;
57822;SDS011;43650;48.064;20.624;2022-09-20T09:47:30;3.80;;;0.50;;
57822;SDS011;43650;48.064;20.624;2022-09-20T09:48:36;0.55;;;0.28;;
57822;SDS011;43650;48.064;20.624;2022-09-20T09:49:36;0.97;;;0.57;;
57822;SDS011;43650;48.064;20.624;2022-09-20T09:50:37;1.13;;;0.70;;
57822;SDS011;43650;48.064;20.624;2022-09-20T09:51:38;7.43;;;0.93;;
57822;SDS011;43650;48.064;20.624;2022-09-20T09:52:52;1.15;;;0.70;;
57822;SDS011;43650;48.064;20.624;2022-09-20T09:53:57;1.58;;;0.88;;
57822;SDS011;43650;48.064;20.624;2022-09-20T09:54:57;0.83;;;0.60;;
57822;SDS011;43650;48.064;20.624;2022-09-20T09:56:33;0.47;;;0.40;;
57822;SDS011;43650;48.064;20.624;2022-09-20T10:00:30;2.60;;;0.60;;
57822;SDS011;43650;48.064;20.624;2022-09-20T10:01:38;1.33;;;0.82;;
57822;SDS011;43650;48.064;20.624;2022-09-20T10:08:22;1.70;;;0.60;;